Time;durP1;ratioP1;P1;durP2;ratioP2;P2;SDS_P1;SDS_P2;PMS_P1;PMS_P2;Temp;Humidity;BMP_temperature;BMP_pressure;BME280_temperature;BME280_humidity;BME280_pressure;Samples;Min_cycle;Max_cycle;Signal;HPM_P1;HPM_P2
2021/12/19 00:09:12;;;;;;;42.15;25.13;;;3.70;99.90;;;;;;5034441;28;20044;-76
2021/12/19 00:11:38;;;;;;;44.20;25.63;;;3.50;99.90;;;;;;5034556;28;20121;-78
2021/12/19 00:14:05;;;;;;;44.70;24.30;;;3.40;99.90;;;;;;5034338;28;20053;-77
2021/12/19 00:16:31;;;;;;;45.15;24.50;;;3.50;99.90;;;;;;5034523;28;20049;-78
2021/12/19 00:18:57;;;;;;;43.15;25.70;;;3.60;99.90;;;;;;5034046;28;20075;-76
2021/12/19 00:21:25;;;;;;;48.40;26.75;;;3.60;99.90;;;;;;5033883;28;20020;-76
2021/12/19 00:23:52;;;;;;;49.08;26.88;;;3.60;99.90;;;;;;5032945;28;20022;-76
2021/12/19 00:26:18;;;;;;;48.20;25.55;;;3.40;99.90;;;;;;5033995;28;20032;-76
2021/12/19 00:28:45;;;;;;;47.20;26.60;;;3.30;99.90;;;;;;5030809;28;20105;-77
2021/12/19 00:31:11;;;;;;;47.15;25.58;;;3.30;99.90;;;;;;5041713;28;20028;-77
2021/12/19 00:33:39;;;;;;;49.40;27.23;;;3.20;99.90;;;;;;5034115;28;20029;-77
2021/12/19 00:36:06;;;;;;;48.60;25.88;;;3.20;99.90;;;;;;5031480;28;20478;-76
2021/12/19 00:38:32;;;;;;;50.97;27.02;;;3.20;99.90;;;;;;5033899;28;20049;-77
2021/12/19 00:40:57;;;;;;;53.22;26.48;;;3.10;99.90;;;;;;5034491;28;20025;-76
2021/12/19 00:43:43;;;;;;;51.50;26.25;;;3.10;99.90;;;;;;5033507;28;20024;-75
2021/12/19 00:46:09;;;;;;;46.72;25.00;;;3.20;99.90;;;;;;5032520;28;20021;-77
2021/12/19 00:48:42;;;;;;;49.78;26.35;;;3.20;99.90;;;;;;5033712;28;20018;-76
2021/12/19 00:51:09;;;;;;;47.63;25.73;;;3.20;99.90;;;;;;5033913;28;20034;-77
2021/12/19 00:53:37;;;;;;;44.67;24.10;;;3.10;99.90;;;;;;5046862;28;20040;-76
2021/12/19 00:56:03;;;;;;;45.75;25.75;;;3.10;99.90;;;;;;5040832;28;20052;-77
2021/12/19 00:58:29;;;;;;;48.10;27.90;;;3.40;99.90;;;;;;5040297;28;20089;-76
2021/12/19 01:00:54;;;;;;;47.72;24.60;;;3.40;99.90;;;;;;5055901;28;20040;-76
2021/12/19 01:03:21;;;;;;;48.20;25.55;;;3.20;99.90;;;;;;5054186;28;20036;-75
2021/12/19 01:05:48;;;;;;;54.33;26.17;;;3.40;99.90;;;;;;5057713;28;20082;-76
2021/12/19 01:08:14;;;;;;;48.85;26.95;;;3.40;99.90;;;;;;5058180;28;20021;-76
2021/12/19 01:10:43;;;;;;;46.63;25.48;;;3.40;99.90;;;;;;5058083;28;20072;-75
2021/12/19 01:13:09;;;;;;;44.85;24.33;;;3.30;99.90;;;;;;5058582;28;20021;-76
2021/12/19 01:15:35;;;;;;;43.88;26.10;;;3.30;99.90;;;;;;5059109;28;20005;-74
2021/12/19 01:18:02;;;;;;;42.70;23.70;;;3.40;99.90;;;;;;5059378;28;20096;-75
2021/12/19 01:20:29;;;;;;;46.50;26.40;;;3.40;99.90;;;;;;5058847;28;20329;-76
2021/12/19 01:22:55;;;;;;;47.40;26.08;;;3.40;99.90;;;;;;5058325;28;20109;-75
2021/12/19 01:25:22;;;;;;;48.10;25.80;;;3.30;99.90;;;;;;5058302;28;20024;-75
2021/12/19 01:27:48;;;;;;;49.47;26.60;;;3.20;99.90;;;;;;5055940;28;20017;-76
2021/12/19 01:30:14;;;;;;;40.88;23.90;;;3.20;99.90;;;;;;5048919;28;20150;-76
2021/12/19 01:32:41;;;;;;;46.75;25.23;;;3.20;99.90;;;;;;5050811;28;20048;-76
2021/12/19 01:35:09;;;;;;;37.85;23.13;;;3.20;99.90;;;;;;5053886;28;20029;-76
2021/12/19 01:37:35;;;;;;;48.08;23.65;;;3.10;99.90;;;;;;5049024;28;20025;-77
2021/12/19 01:40:01;;;;;;;46.35;26.20;;;3.00;99.90;;;;;;5055676;28;20037;-76
2021/12/19 01:42:36;;;;;;;47.60;26.60;;;3.00;99.90;;;;;;5056035;28;20099;-75
2021/12/19 01:45:04;;;;;;;48.47;26.67;;;3.10;99.90;;;;;;5056346;28;20041;-75
2021/12/19 01:47:29;;;;;;;45.30;24.98;;;3.00;99.90;;;;;;5048688;28;20017;-76
2021/12/19 01:49:55;;;;;;;48.28;25.50;;;3.00;99.90;;;;;;5056095;28;20030;-75
2021/12/19 01:52:22;;;;;;;49.97;27.88;;;3.00;99.90;;;;;;5051252;28;20025;-77
2021/12/19 01:54:48;;;;;;;43.30;23.73;;;3.00;99.90;;;;;;5045257;28;20036;-77
2021/12/19 01:57:14;;;;;;;46.85;24.17;;;2.90;99.90;;;;;;5041203;28;20022;-78
2021/12/19 01:59:39;;;;;;;49.35;26.77;;;2.80;99.90;;;;;;5044115;28;20032;-77
2021/12/19 02:02:05;;;;;;;49.28;25.80;;;2.80;99.90;;;;;;5045489;28;20028;-76
2021/12/19 02:04:33;;;;;;;48.38;26.60;;;2.90;99.90;;;;;;5042921;28;20029;-77
2021/12/19 02:06:59;;;;;;;51.47;26.17;;;3.10;99.90;;;;;;5037203;28;20029;-77
2021/12/19 02:09:25;;;;;;;47.00;25.90;;;3.20;99.90;;;;;;5035007;28;20083;-77
2021/12/19 02:11:51;;;;;;;44.70;24.83;;;3.10;99.90;;;;;;5035773;28;20021;-78
2021/12/19 02:14:18;;;;;;;45.72;24.50;;;3.30;99.90;;;;;;5033227;28;20033;-76
2021/12/19 02:16:43;;;;;;;51.20;24.60;;;3.30;99.90;;;;;;5032578;28;20052;-76
2021/12/19 02:19:10;;;;;;;49.00;26.63;;;3.50;99.90;;;;;;5032923;28;20385;-76
2021/12/19 02:21:36;;;;;;;45.83;24.65;;;3.60;99.90;;;;;;5032533;28;20053;-76
2021/12/19 02:24:06;;;;;;;54.55;27.70;;;3.40;99.90;;;;;;5032725;28;20033;-76
2021/12/19 02:26:32;;;;;;;49.07;25.73;;;3.20;99.90;;;;;;5032451;28;20411;-76
2021/12/19 02:28:58;;;;;;;45.45;24.13;;;3.40;99.90;;;;;;5032898;28;20271;-76
2021/12/19 02:31:24;;;;;;;46.05;24.13;;;3.50;99.90;;;;;;5032384;28;20563;-76
2021/12/19 02:34:15;;;;;;;42.03;23.80;;;3.50;99.90;;;;;;5032258;28;20060;-78
2021/12/19 02:50:24;;;;;;;48.10;23.58;;;3.30;99.90;;;;;;5033696;28;20033;-76
2021/12/19 02:52:50;;;;;;;49.00;26.02;;;3.20;99.90;;;;;;5030897;28;20029;-77
2021/12/19 02:55:17;;;;;;;47.92;26.63;;;3.10;99.90;;;;;;5031233;28;20025;-77
2021/12/19 02:57:45;;;;;;;50.13;25.98;;;3.00;99.90;;;;;;5033829;28;20056;-77
2021/12/19 03:00:15;;;;;;;46.75;24.60;;;3.00;99.90;;;;;;5035693;28;20021;-77
2021/12/19 03:02:40;;;;;;;49.20;25.55;;;3.00;99.90;;;;;;5037241;28;20017;-77
2021/12/19 03:05:07;;;;;;;48.63;23.63;;;3.00;99.90;;;;;;5037545;28;20021;-77
2021/12/19 03:07:38;;;;;;;47.95;24.83;;;2.90;99.90;;;;;;5036997;28;20087;-77
2021/12/19 03:18:19;;;;;;;46.70;22.95;;;2.90;99.90;;;;;;5036080;28;20040;-77
2021/12/19 03:20:45;;;;;;;39.03;19.77;;;2.90;99.90;;;;;;5034926;28;20017;-77
2021/12/19 03:23:13;;;;;;;44.70;23.73;;;2.90;99.90;;;;;;5035274;28;20030;-77
2021/12/19 03:25:39;;;;;;;41.22;20.42;;;2.90;99.90;;;;;;5032298;28;20020;-77
2021/12/19 03:28:08;;;;;;;36.45;20.75;;;3.00;99.90;;;;;;5036461;28;20084;-77
2021/12/19 03:30:35;;;;;;;41.92;19.27;;;3.00;99.90;;;;;;5036484;28;20029;-77
2021/12/19 03:33:01;;;;;;;39.78;20.45;;;3.00;99.90;;;;;;5035625;28;20026;-77
2021/12/19 03:35:29;;;;;;;36.00;18.98;;;3.00;99.90;;;;;;5035477;28;20022;-78
2021/12/19 03:37:55;;;;;;;35.67;20.20;;;2.90;99.90;;;;;;5033992;28;20022;-77
2021/12/19 03:40:24;;;;;;;37.53;20.10;;;2.90;99.90;;;;;;5035310;28;20024;-75
2021/12/19 03:42:52;;;;;;;35.20;16.98;;;2.90;99.90;;;;;;5035169;28;20013;-76
2021/12/19 03:45:21;;;;;;;31.90;17.65;;;2.80;99.90;;;;;;5035462;28;20105;-77
2021/12/19 03:47:48;;;;;;;40.60;19.60;;;2.80;99.90;;;;;;5036067;28;20022;-77
2021/12/19 03:50:17;;;;;;;36.60;18.70;;;2.70;99.90;;;;;;5034918;28;20029;-77
2021/12/19 03:52:43;;;;;;;36.97;18.80;;;2.70;99.90;;;;;;5035283;28;20025;-76
2021/12/19 03:55:09;;;;;;;34.33;18.50;;;2.70;99.90;;;;;;5034780;28;20639;-77
2021/12/19 03:57:34;;;;;;;42.42;19.20;;;2.70;99.90;;;;;;5033049;28;20021;-78
2021/12/19 04:00:01;;;;;;;41.45;19.48;;;2.70;99.90;;;;;;5034527;28;20031;-76
2021/12/19 04:02:29;;;;;;;39.08;18.42;;;2.70;99.90;;;;;;5033260;28;20013;-76
2021/12/19 04:04:56;;;;;;;39.15;19.70;;;2.60;99.90;;;;;;5033380;28;20013;-77
2021/12/19 04:07:23;;;;;;;32.88;17.02;;;2.60;99.90;;;;;;5033339;28;20075;-78
2021/12/19 04:09:49;;;;;;;32.75;16.52;;;2.60;99.90;;;;;;5032765;28;20041;-77
2021/12/19 04:12:15;;;;;;;34.60;17.38;;;2.60;99.90;;;;;;5034384;28;20033;-78
2021/12/19 04:14:41;;;;;;;39.92;19.15;;;2.60;99.90;;;;;;5032981;28;20022;-78
2021/12/19 04:17:07;;;;;;;37.33;17.02;;;2.70;99.90;;;;;;5034223;28;20033;-77
2021/12/19 04:19:32;;;;;;;34.92;16.73;;;2.70;99.90;;;;;;5034303;28;20048;-76
2021/12/19 04:21:59;;;;;;;34.28;18.10;;;2.70;99.90;;;;;;5034154;28;20449;-76
2021/12/19 04:24:26;;;;;;;38.63;19.10;;;2.70;99.90;;;;;;5028876;28;20159;-76
2021/12/19 04:26:51;;;;;;;35.63;19.20;;;2.60;99.90;;;;;;5033955;28;20025;-77
2021/12/19 04:29:17;;;;;;;35.30;18.13;;;2.70;99.90;;;;;;5034198;28;20034;-77
2021/12/19 04:31:42;;;;;;;32.17;17.55;;;2.70;99.90;;;;;;5033796;28;20464;-77
2021/12/19 04:34:08;;;;;;;35.50;17.17;;;2.60;99.90;;;;;;5034131;28;20026;-76
2021/12/19 04:36:39;;;;;;;32.72;16.85;;;2.70;99.90;;;;;;5033736;28;20104;-76
2021/12/19 05:02:32;;;;;;;29.58;15.20;;;2.80;99.90;;;;;;5034675;28;20108;-76
2021/12/19 05:05:30;;;;;;;25.25;14.10;;;2.80;99.90;;;;;;5034584;28;20088;-77
2021/12/19 05:15:53;;;;;;;24.00;14.43;;;2.90;99.90;;;;;;5032566;28;20032;-76
2021/12/19 05:18:24;;;;;;;23.10;14.32;;;2.90;99.90;;;;;;5032909;28;20100;-78
2021/12/19 05:21:00;;;;;;;23.05;13.50;;;2.90;99.90;;;;;;5032733;28;20010;-78
2021/12/19 05:23:37;;;;;;;25.92;14.13;;;2.90;99.90;;;;;;5031964;28;20037;-76
2021/12/19 05:26:03;;;;;;;27.80;14.93;;;3.00;99.90;;;;;;5033724;28;20041;-76
2021/12/19 05:28:29;;;;;;;27.33;14.73;;;2.90;99.90;;;;;;5033652;28;20025;-77
2021/12/19 05:30:55;;;;;;;26.27;13.30;;;2.90;99.90;;;;;;5033429;28;20044;-76
2021/12/19 05:33:20;;;;;;;26.33;13.32;;;2.90;99.90;;;;;;5033524;28;20029;-78
2021/12/19 05:44:15;;;;;;;20.25;11.63;;;2.60;99.90;;;;;;4990663;28;20033;-76
2021/12/19 05:46:40;;;;;;;;;;;2.60;99.90;;;;;;4991411;28;20022;-76
2021/12/19 05:49:07;;;;;;;17.15;10.20;;;2.60;99.90;;;;;;5014235;28;20257;-76
2021/12/19 05:51:38;;;;;;;19.45;10.45;;;2.60;99.90;;;;;;5031124;28;20056;-76
2021/12/19 05:54:04;;;;;;;;;;;2.60;99.90;;;;;;5032592;28;20401;-77
2021/12/19 05:56:29;;;;;;;20.83;10.90;;;2.50;99.90;;;;;;5030495;28;20008;-77
2021/12/19 05:58:55;;;;;;;20.58;10.77;;;2.50;99.90;;;;;;5031815;28;20025;-76
2021/12/19 06:01:21;;;;;;;19.75;10.93;;;2.50;99.90;;;;;;5033156;28;20478;-77
2021/12/19 06:03:46;;;;;;;19.48;11.18;;;2.50;99.90;;;;;;5036356;28;20020;-77
2021/12/19 06:06:12;;;;;;;20.42;10.00;;;2.40;99.90;;;;;;5036577;28;20037;-77
2021/12/19 06:08:37;;;;;;;17.10;9.75;;;2.40;99.90;;;;;;5034167;28;20026;-76
2021/12/19 06:11:03;;;;;;;19.23;9.88;;;2.40;99.90;;;;;;5032478;28;20029;-76
2021/12/19 06:13:28;;;;;;;19.35;10.85;;;2.40;99.90;;;;;;5031800;28;20107;-77
2021/12/19 06:15:56;;;;;;;21.05;11.45;;;2.50;99.90;;;;;;5032359;28;20142;-77
2021/12/19 06:18:22;;;;;;;18.98;10.65;;;2.50;99.90;;;;;;5031745;28;20017;-77
2021/12/19 06:20:48;;;;;;;21.15;11.82;;;2.50;99.90;;;;;;5031319;28;20022;-77
2021/12/19 06:23:14;;;;;;;17.55;10.43;;;2.60;99.90;;;;;;5032302;28;20028;-76
2021/12/19 06:25:45;;;;;;;17.83;11.05;;;2.50;99.90;;;;;;5032147;28;20021;-76
2021/12/19 06:28:18;;;;;;;19.77;9.88;;;2.50;99.90;;;;;;5031158;28;20401;-76
2021/12/19 06:30:45;;;;;;;15.73;9.40;;;2.60;99.90;;;;;;5030286;28;20021;-79
2021/12/19 06:33:11;;;;;;;15.38;9.77;;;2.50;99.90;;;;;;5030823;28;20485;-77
2021/12/19 06:35:36;;;;;;;15.68;9.55;;;2.50;99.90;;;;;;5034139;28;20033;-77
2021/12/19 06:38:02;;;;;;;18.30;11.20;;;2.50;99.90;;;;;;5035719;28;20550;-75
2021/12/19 06:40:28;;;;;;;16.40;9.90;;;2.50;99.90;;;;;;5035940;28;20025;-77
2021/12/19 06:42:54;;;;;;;16.58;10.75;;;2.50;99.90;;;;;;5035787;28;20083;-76
2021/12/19 06:45:20;;;;;;;15.80;10.25;;;2.50;99.90;;;;;;5034581;28;20017;-76
2021/12/19 06:47:47;;;;;;;16.45;10.55;;;2.40;99.90;;;;;;5038141;28;20028;-77
2021/12/19 06:50:13;;;;;;;18.08;10.07;;;2.50;99.90;;;;;;5035730;28;20103;-77
2021/12/19 06:52:39;;;;;;;17.00;10.93;;;2.50;99.90;;;;;;5032845;28;20068;-76
2021/12/19 06:55:06;;;;;;;17.00;9.82;;;2.50;99.90;;;;;;5033508;28;20036;-78
2021/12/19 06:57:32;;;;;;;12.50;8.60;;;2.50;99.90;;;;;;5027855;28;20030;-76
2021/12/19 06:59:57;;;;;;;16.73;10.63;;;2.60;99.90;;;;;;5035533;28;20022;-77
2021/12/19 07:02:24;;;;;;;15.52;9.23;;;2.60;99.90;;;;;;5034826;28;20013;-76
2021/12/19 07:04:51;;;;;;;16.80;10.23;;;2.50;99.90;;;;;;5036524;28;20013;-78
2021/12/19 07:07:19;;;;;;;15.25;8.90;;;2.50;99.90;;;;;;5036716;28;20030;-77
2021/12/19 07:09:44;;;;;;;15.85;9.82;;;2.50;99.90;;;;;;5036495;28;20018;-77
2021/12/19 07:12:10;;;;;;;20.05;10.48;;;2.50;99.90;;;;;;5035191;28;20486;-76
2021/12/19 07:14:36;;;;;;;20.70;10.05;;;2.60;99.90;;;;;;5035246;28;20523;-76
2021/12/19 07:17:01;;;;;;;17.42;10.40;;;2.50;99.90;;;;;;5035300;28;20030;-77
2021/12/19 07:19:28;;;;;;;15.77;10.27;;;2.60;99.90;;;;;;5035655;28;20018;-76
2021/12/19 07:21:54;;;;;;;13.95;9.52;;;2.50;99.90;;;;;;5035141;28;20108;-76
2021/12/19 07:24:19;;;;;;;15.65;9.48;;;2.50;99.90;;;;;;5035836;28;20029;-79
2021/12/19 07:26:45;;;;;;;15.13;9.43;;;2.50;99.90;;;;;;5034913;28;20116;-76
2021/12/19 07:29:10;;;;;;;14.73;9.55;;;2.50;99.90;;;;;;5034854;28;20501;-77
2021/12/19 07:31:38;;;;;;;15.70;9.90;;;2.50;99.90;;;;;;5034718;28;20159;-76
2021/12/19 07:34:05;;;;;;;17.98;9.70;;;2.50;99.90;;;;;;5033053;28;20025;-77
2021/12/19 07:36:38;;;;;;;10.48;7.45;;;2.50;99.90;;;;;;5033676;28;20026;-77
2021/12/19 07:39:09;;;;;;;14.13;8.15;;;2.50;99.90;;;;;;5032130;28;20013;-77
2021/12/19 07:41:35;;;;;;;13.32;8.88;;;2.50;99.90;;;;;;5033697;28;20099;-76
2021/12/19 07:44:00;;;;;;;12.60;8.68;;;2.60;99.90;;;;;;5034659;28;20481;-77
2021/12/19 07:46:26;;;;;;;13.68;7.75;;;2.60;99.90;;;;;;5034238;28;20053;-77
2021/12/19 07:48:52;;;;;;;11.68;7.47;;;2.80;99.90;;;;;;5034787;28;20030;-76
2021/12/19 07:51:17;;;;;;;14.95;9.57;;;2.80;99.90;;;;;;5033516;28;20021;-76
2021/12/19 07:53:43;;;;;;;11.30;7.97;;;2.80;99.90;;;;;;5034033;28;20095;-76
2021/12/19 07:56:08;;;;;;;10.30;6.95;;;2.70;99.90;;;;;;5034010;28;20032;-77
2021/12/19 07:58:34;;;;;;;14.10;7.38;;;2.70;99.90;;;;;;5034152;28;20029;-76
2021/12/19 08:01:00;;;;;;;9.50;6.90;;;2.70;99.90;;;;;;5034345;28;20402;-75
2021/12/19 08:03:25;;;;;;;12.65;7.32;;;2.90;99.90;;;;;;5034951;28;20017;-77
2021/12/19 08:05:51;;;;;;;9.27;6.70;;;2.90;99.90;;;;;;5036704;28;20411;-77
2021/12/19 08:08:21;;;;;;;11.13;7.50;;;2.90;99.90;;;;;;5033854;28;20029;-76
2021/12/19 08:13:13;;;;;;;9.65;7.32;;;2.90;99.90;;;;;;5034430;28;20033;-76
2021/12/19 08:15:39;;;;;;;9.98;7.45;;;2.80;99.90;;;;;;5034800;28;20517;-77
2021/12/19 08:18:06;;;;;;;11.43;8.00;;;2.70;99.90;;;;;;5034067;28;20036;-76
2021/12/19 08:20:32;;;;;;;13.60;6.85;;;2.80;99.90;;;;;;5034139;28;20109;-76
2021/12/19 08:22:58;;;;;;;10.63;6.32;;;2.80;99.90;;;;;;5032602;28;20539;-76
2021/12/19 08:25:25;;;;;;;9.13;5.82;;;2.90;99.90;;;;;;5034455;28;20014;-77
2021/12/19 08:27:51;;;;;;;9.93;5.63;;;2.90;99.90;;;;;;5032887;28;20033;-77
2021/12/19 08:30:18;;;;;;;9.73;6.78;;;2.90;99.90;;;;;;5033610;28;20025;-77
2021/12/19 08:32:44;;;;;;;10.70;5.78;;;2.90;99.90;;;;;;5034074;28;20057;-77
2021/12/19 08:35:11;;;;;;;7.60;5.57;;;2.70;99.90;;;;;;5034269;28;20040;-77
2021/12/19 08:37:37;;;;;;;8.43;5.68;;;2.70;99.90;;;;;;5033603;28;20570;-79
2021/12/19 08:40:05;;;;;;;8.57;5.90;;;2.70;99.90;;;;;;5041449;28;20477;-76
2021/12/19 08:42:32;;;;;;;8.93;6.80;;;2.80;99.90;;;;;;5033567;28;20445;-76
2021/12/19 08:44:58;;;;;;;10.13;6.15;;;2.80;99.90;;;;;;5034014;28;20026;-77
2021/12/19 08:47:24;;;;;;;8.05;6.22;;;2.80;99.90;;;;;;5026338;28;20026;-77
2021/12/19 08:49:50;;;;;;;6.82;5.20;;;2.80;99.90;;;;;;5033682;28;20017;-77
2021/12/19 08:52:15;;;;;;;6.38;5.05;;;2.90;99.90;;;;;;5032556;28;20022;-77
2021/12/19 08:54:41;;;;;;;11.18;5.00;;;2.90;99.90;;;;;;5032256;28;20053;-77
2021/12/19 08:57:06;;;;;;;7.25;5.57;;;3.00;99.90;;;;;;5033556;28;20076;-77
2021/12/19 08:59:32;;;;;;;6.32;4.88;;;3.10;99.90;;;;;;5032916;28;20397;-77
2021/12/19 09:02:00;;;;;;;8.60;5.55;;;3.10;99.90;;;;;;5033579;28;20029;-77
2021/12/19 09:04:26;;;;;;;6.07;4.20;;;3.10;99.90;;;;;;5034057;28;20445;-77
2021/12/19 09:06:56;;;;;;;8.75;5.07;;;3.10;99.90;;;;;;5035972;28;20559;-77
2021/12/19 09:09:21;;;;;;;6.43;4.50;;;3.00;99.90;;;;;;5034809;28;20033;-77
2021/12/19 09:11:47;;;;;;;6.63;4.50;;;3.10;99.90;;;;;;5040511;28;20025;-76
2021/12/19 09:14:12;;;;;;;6.75;4.88;;;3.10;99.90;;;;;;5040548;28;20022;-77
2021/12/19 09:16:38;;;;;;;6.60;4.63;;;3.10;99.90;;;;;;5038483;28;20393;-76
2021/12/19 09:19:03;;;;;;;11.27;5.65;;;3.10;99.90;;;;;;5034566;28;20493;-77
2021/12/19 09:21:29;;;;;;;7.13;5.07;;;3.20;99.90;;;;;;5033247;28;20083;-77
2021/12/19 09:23:54;;;;;;;6.55;4.35;;;3.20;99.90;;;;;;5031258;28;20037;-77
2021/12/19 09:26:20;;;;;;;5.85;4.40;;;3.30;99.90;;;;;;5051738;28;20012;-76
2021/12/19 09:28:46;;;;;;;7.63;4.82;;;3.30;99.90;;;;;;5053509;28;20021;-76
2021/12/19 09:31:11;;;;;;;5.75;4.18;;;3.40;99.90;;;;;;5054061;28;20033;-75
2021/12/19 09:33:37;;;;;;;6.85;4.90;;;3.40;99.90;;;;;;5055362;28;20025;-76
2021/12/19 09:36:02;;;;;;;5.50;3.83;;;3.40;99.90;;;;;;5054295;28;20033;-75
2021/12/19 09:38:28;;;;;;;7.70;4.75;;;3.60;99.90;;;;;;5055040;28;20033;-75
2021/12/19 09:41:11;;;;;;;5.65;4.22;;;3.70;99.90;;;;;;5037356;28;20033;-77
2021/12/19 09:43:42;;;;;;;5.05;3.45;;;3.70;99.90;;;;;;5028323;28;20029;-77
2021/12/19 09:46:16;;;;;;;3.90;3.47;;;3.60;99.90;;;;;;5034628;28;20130;-77
2021/12/19 09:48:46;;;;;;;4.05;3.05;;;3.60;99.90;;;;;;5034015;28;20029;-77
2021/12/19 09:51:14;;;;;;;3.85;3.10;;;3.50;99.90;;;;;;5033363;28;20049;-78
2021/12/19 09:53:40;;;;;;;4.32;3.13;;;3.50;99.90;;;;;;5033387;28;20029;-77
2021/12/19 09:56:06;;;;;;;5.03;3.20;;;3.50;99.90;;;;;;5034885;28;20028;-78
2021/12/19 09:58:34;;;;;;;3.80;2.65;;;3.60;99.90;;;;;;5033379;28;20478;-77
2021/12/19 10:01:01;;;;;;;3.60;2.67;;;3.70;99.90;;;;;;5032505;28;20071;-76
2021/12/19 10:03:26;;;;;;;4.55;2.80;;;3.70;99.90;;;;;;5030703;28;20028;-76
2021/12/19 10:06:15;;;;;;;3.67;2.88;;;3.70;99.90;;;;;;5032064;28;20021;-77
2021/12/19 10:08:41;;;;;;;3.83;2.70;;;3.80;99.90;;;;;;5028861;28;20041;-76
2021/12/19 10:11:45;;;;;;;3.55;3.05;;;3.90;99.90;;;;;;5032828;28;20037;-77
2021/12/19 10:14:30;;;;;;;4.53;2.72;;;3.70;99.90;;;;;;5034681;28;20026;-77
2021/12/19 10:17:01;;;;;;;5.97;3.08;;;3.70;99.90;;;;;;5032468;28;20033;-75
2021/12/19 10:19:42;;;;;;;4.38;3.50;;;3.70;99.90;;;;;;5028441;28;20010;-77
2021/12/19 10:22:22;;;;;;;3.25;2.88;;;3.70;99.90;;;;;;5031880;28;20064;-79
2021/12/19 10:24:48;;;;;;;2.97;2.45;;;3.80;99.90;;;;;;5031364;28;20022;-77
2021/12/19 10:27:31;;;;;;;4.20;2.85;;;4.00;99.90;;;;;;5037397;28;20029;-77
2021/12/19 10:29:56;;;;;;;3.35;2.45;;;4.00;99.90;;;;;;5035561;28;20388;-77
2021/12/19 10:32:22;;;;;;;2.75;2.00;;;4.10;99.90;;;;;;5035562;28;20022;-76
2021/12/19 10:34:47;;;;;;;3.58;2.00;;;4.00;99.90;;;;;;5032833;28;20018;-77
2021/12/19 10:37:34;;;;;;;4.20;2.40;;;3.90;99.90;;;;;;5032862;28;20054;-79
2021/12/19 10:40:02;;;;;;;2.20;1.85;;;3.90;99.90;;;;;;5032437;28;20155;-77
2021/12/19 10:42:34;;;;;;;2.85;1.98;;;3.90;99.90;;;;;;5031396;28;20507;-76
2021/12/19 10:47:43;;;;;;;2.47;1.77;;;4.00;99.90;;;;;;5031651;28;20029;-77
2021/12/19 10:50:09;;;;;;;3.55;2.58;;;3.90;99.90;;;;;;5031454;28;20021;-77
2021/12/19 10:52:38;;;;;;;2.75;2.45;;;3.90;99.90;;;;;;5032559;28;20029;-78
2021/12/19 10:55:09;;;;;;;2.08;1.65;;;3.90;99.90;;;;;;5029804;28;20021;-78
2021/12/19 10:57:38;;;;;;;1.67;1.58;;;3.90;99.90;;;;;;5032391;28;20208;-77
2021/12/19 11:00:24;;;;;;;2.33;1.92;;;3.90;99.90;;;;;;5031963;28;20034;-78
2021/12/19 11:02:49;;;;;;;3.22;2.80;;;3.80;99.90;;;;;;5033963;28;20017;-76
2021/12/19 11:05:36;;;;;;;2.20;2.00;;;3.90;99.90;;;;;;5032710;28;20503;-78
2021/12/19 11:08:08;;;;;;;2.15;1.60;;;3.80;99.90;;;;;;5030015;28;20030;-77
2021/12/19 11:10:35;;;;;;;2.28;2.08;;;3.80;99.90;;;;;;5032885;28;20032;-77
2021/12/19 11:13:12;;;;;;;2.28;1.77;;;3.70;99.90;;;;;;5032356;28;20029;-76
2021/12/19 11:15:38;;;;;;;2.25;1.90;;;3.80;99.90;;;;;;5034999;28;20381;-76
2021/12/19 11:18:05;;;;;;;2.17;1.98;;;3.80;99.90;;;;;;5057014;28;20049;-74
2021/12/19 11:20:31;;;;;;;2.38;1.73;;;3.80;99.90;;;;;;5058590;28;20025;-75
2021/12/19 11:22:57;;;;;;;3.55;2.70;;;3.60;99.90;;;;;;5059614;28;20056;-76
2021/12/19 11:25:23;;;;;;;3.17;2.08;;;3.70;99.90;;;;;;5059619;28;20024;-75
2021/12/19 11:27:49;;;;;;;2.88;2.30;;;3.90;99.90;;;;;;5058252;28;20030;-77
2021/12/19 11:30:18;;;;;;;4.88;2.88;;;3.90;99.90;;;;;;5040389;28;20167;-77
2021/12/19 11:32:48;;;;;;;3.35;2.78;;;3.70;99.90;;;;;;5037883;28;20024;-77
2021/12/19 11:35:20;;;;;;;3.35;2.47;;;3.70;99.90;;;;;;5038435;28;20509;-78
2021/12/19 11:37:54;;;;;;;3.22;2.92;;;3.70;99.90;;;;;;5036895;28;20371;-79
2021/12/19 11:40:21;;;;;;;3.17;2.80;;;3.70;99.90;;;;;;5036692;28;20090;-78
2021/12/19 11:42:47;;;;;;;3.67;3.00;;;3.70;99.90;;;;;;5036291;28;20010;-77
2021/12/19 11:45:28;;;;;;;3.67;2.92;;;3.70;99.90;;;;;;5037300;28;20045;-76
2021/12/19 11:48:26;;;;;;;4.57;3.67;;;3.80;99.90;;;;;;5037387;28;20473;-80
2021/12/19 11:50:54;;;;;;;3.35;2.70;;;3.80;99.90;;;;;;5034221;28;20029;-76
2021/12/19 11:53:32;;;;;;;4.10;3.28;;;4.00;99.90;;;;;;5039989;28;20017;-77
2021/12/19 11:56:08;;;;;;;3.38;2.88;;;4.00;99.90;;;;;;5032584;28;20029;-77
2021/12/19 11:58:48;;;;;;;3.97;3.50;;;3.90;99.90;;;;;;5031362;28;20081;-76
2021/12/19 12:01:24;;;;;;;4.30;3.10;;;3.80;99.90;;;;;;5035635;28;20064;-77
2021/12/19 12:03:55;;;;;;;4.45;3.13;;;3.80;99.90;;;;;;5035561;28;20013;-77
2021/12/19 12:06:26;;;;;;;4.07;3.38;;;3.80;99.90;;;;;;5035127;28;20064;-77
2021/12/19 12:09:32;;;;;;;4.55;3.15;;;3.80;99.90;;;;;;5033627;28;20025;-76
2021/12/19 12:12:03;;;;;;;4.63;3.75;;;3.70;99.90;;;;;;5033750;28;20029;-77
2021/12/19 12:14:55;;;;;;;4.88;3.33;;;4.00;99.90;;;;;;5028274;28;20021;-77
2021/12/19 12:17:28;;;;;;;3.80;3.40;;;4.10;99.90;;;;;;5037107;28;20037;-77
2021/12/19 12:20:01;;;;;;;4.82;4.30;;;4.10;99.90;;;;;;5035464;28;20079;-77
2021/12/19 12:25:04;;;;;;;4.95;4.05;;;3.80;99.90;;;;;;5034552;28;20426;-76
2021/12/19 12:27:48;;;;;;;3.55;3.10;;;3.80;99.90;;;;;;5030640;28;20021;-76
2021/12/19 12:30:18;;;;;;;4.60;3.67;;;3.80;99.90;;;;;;5032760;28;20029;-77
2021/12/19 12:32:45;;;;;;;4.47;3.47;;;3.80;99.90;;;;;;5034620;28;20026;-78
2021/12/19 12:35:12;;;;;;;4.72;4.22;;;3.70;99.90;;;;;;5034271;28;20033;-76
2021/12/19 12:37:40;;;;;;;6.65;4.78;;;3.70;99.90;;;;;;5034175;28;20021;-77
2021/12/19 12:43:16;;;;;;;3.95;3.33;;;3.60;99.90;;;;;;5033202;28;20053;-76
2021/12/19 12:45:53;;;;;;;4.78;3.78;;;3.60;99.90;;;;;;5032365;28;20018;-78
2021/12/19 12:48:43;;;;;;;4.38;3.72;;;3.70;99.90;;;;;;5033602;28;20095;-78
2021/12/19 12:51:36;;;;;;;3.92;3.53;;;3.60;99.90;;;;;;5032299;28;20044;-76
2021/12/19 12:54:21;;;;;;;4.70;4.03;;;3.70;99.90;;;;;;5033655;28;20025;-77
2021/12/19 12:56:51;;;;;;;4.63;4.13;;;3.60;99.90;;;;;;5039132;28;20017;-76
2021/12/19 12:59:22;;;;;;;5.07;4.15;;;3.70;99.90;;;;;;5051579;28;20030;-77
2021/12/19 13:01:55;;;;;;;5.10;3.92;;;3.70;99.90;;;;;;5033873;28;20032;-78
2021/12/19 13:04:25;;;;;;;4.13;3.72;;;3.70;99.90;;;;;;5033295;28;20029;-76
2021/12/19 13:07:09;;;;;;;6.40;4.80;;;3.70;99.90;;;;;;5038927;28;20053;-77
2021/12/19 13:09:49;;;;;;;5.20;4.40;;;3.90;99.90;;;;;;5023101;28;20389;-79
2021/12/19 13:12:17;;;;;;;7.22;4.78;;;3.80;99.90;;;;;;5034444;28;20080;-77
2021/12/19 13:14:54;;;;;;;6.53;4.40;;;3.90;99.90;;;;;;5037843;28;20059;-78
2021/12/19 13:17:26;;;;;;;6.20;4.95;;;3.90;99.90;;;;;;5033726;28;20033;-77
2021/12/19 13:20:03;;;;;;;4.45;3.80;;;3.90;99.90;;;;;;5034772;28;20563;-77
2021/12/19 13:22:47;;;;;;;4.57;3.78;;;3.90;99.90;;;;;;5024691;28;20439;-75
2021/12/19 13:25:29;;;;;;;4.70;3.88;;;3.80;99.90;;;;;;5034399;28;20394;-76
2021/12/19 13:28:00;;;;;;;5.80;4.65;;;3.80;99.90;;;;;;5035173;28;20563;-76
2021/12/19 13:30:36;;;;;;;7.15;5.20;;;3.80;99.90;;;;;;5026572;28;20025;-77
2021/12/19 13:33:05;;;;;;;5.32;4.78;;;3.80;99.90;;;;;;5035815;28;20024;-77
2021/12/19 13:35:42;;;;;;;5.20;4.70;;;3.60;99.90;;;;;;5035393;28;20017;-76
2021/12/19 13:38:08;;;;;;;6.72;5.50;;;3.60;99.90;;;;;;5035733;28;20482;-76
2021/12/19 13:40:41;;;;;;;7.53;5.18;;;3.60;99.90;;;;;;5036372;28;20031;-76
2021/12/19 13:43:12;;;;;;;7.15;5.72;;;3.50;99.90;;;;;;5034869;28;20025;-77
2021/12/19 13:45:48;;;;;;;6.88;6.07;;;3.50;99.90;;;;;;5034362;28;20075;-78
2021/12/19 13:48:22;;;;;;;7.72;6.22;;;3.50;99.90;;;;;;5033285;28;20014;-76
2021/12/19 13:51:02;;;;;;;8.93;5.38;;;3.60;99.90;;;;;;5034924;28;20025;-76
2021/12/19 13:53:30;;;;;;;5.95;5.35;;;3.60;99.90;;;;;;5032793;28;20068;-77
2021/12/19 13:56:11;;;;;;;7.55;5.47;;;3.60;99.90;;;;;;5034492;28;20040;-77
2021/12/19 13:58:40;;;;;;;9.25;5.78;;;3.70;99.90;;;;;;5032633;28;20030;-78
2021/12/19 14:01:28;;;;;;;8.80;6.93;;;3.70;99.90;;;;;;5032092;28;20366;-76
2021/12/19 14:03:57;;;;;;;8.32;6.85;;;3.70;99.90;;;;;;5033355;28;20025;-78
2021/12/19 14:06:37;;;;;;;9.95;7.35;;;3.70;99.90;;;;;;5032119;28;20017;-78
2021/12/19 14:09:10;;;;;;;8.60;7.50;;;3.60;99.90;;;;;;5031621;28;20487;-78
2021/12/19 14:11:39;;;;;;;7.70;6.90;;;3.50;99.90;;;;;;5032427;28;20466;-78
2021/12/19 14:14:32;;;;;;;8.60;7.00;;;3.40;99.90;;;;;;5032885;28;20025;-77
2021/12/19 14:17:03;;;;;;;9.10;7.72;;;3.40;99.90;;;;;;5031753;28;20053;-78
2021/12/19 14:19:32;;;;;;;8.95;6.78;;;3.40;99.90;;;;;;5032181;28;20028;-77